sensor_id;sensor_type;location;lat;lon;timestamp;P1;durP1;ratioP1;P2;durP2;ratioP2
4758;SDS011;2393;50.560;12.636;2024-03-17T00:01:36;2.15;;;1.60;;
4758;SDS011;2393;50.560;12.636;2024-03-17T00:04:04;3.22;;;1.75;;
4758;SDS011;2393;50.560;12.636;2024-03-17T00:06:31;3.33;;;2.08;;
4758;SDS011;2393;50.560;12.636;2024-03-17T00:09:00;1.92;;;1.48;;
4758;SDS011;2393;50.560;12.636;2024-03-17T00:11:31;3.13;;;2.38;;
4758;SDS011;2393;50.560;12.636;2024-03-17T00:14:01;2.47;;;2.38;;
4758;SDS011;2393;50.560;12.636;2024-03-17T00:16:28;1.75;;;1.65;;
4758;SDS011;2393;50.560;12.636;2024-03-17T00:18:56;1.55;;;1.55;;
4758;SDS011;2393;50.560;12.636;2024-03-17T00:21:22;1.80;;;1.70;;
4758;SDS011;2393;50.560;12.636;2024-03-17T00:23:51;3.00;;;1.70;;
4758;SDS011;2393;50.560;12.636;2024-03-17T00:26:19;1.90;;;1.80;;
4758;SDS011;2393;50.560;12.636;2024-03-17T00:28:47;2.00;;;1.38;;
4758;SDS011;2393;50.560;12.636;2024-03-17T00:31:17;1.08;;;1.08;;
4758;SDS011;2393;50.560;12.636;2024-03-17T00:33:45;2.15;;;1.25;;
4758;SDS011;2393;50.560;12.636;2024-03-17T00:36:12;2.00;;;1.10;;
4758;SDS011;2393;50.560;12.636;2024-03-17T00:38:40;1.42;;;0.90;;
4758;SDS011;2393;50.560;12.636;2024-03-17T00:41:06;3.25;;;0.90;;
4758;SDS011;2393;50.560;12.636;2024-03-17T00:43:35;2.17;;;1.92;;
4758;SDS011;2393;50.560;12.636;2024-03-17T00:46:02;6.82;;;1.83;;
4758;SDS011;2393;50.560;12.636;2024-03-17T00:48:30;1.20;;;1.05;;
4758;SDS011;2393;50.560;12.636;2024-03-17T00:50:57;4.63;;;1.30;;
4758;SDS011;2393;50.560;12.636;2024-03-17T00:53:25;1.33;;;1.23;;
4758;SDS011;2393;50.560;12.636;2024-03-17T00:55:52;0.80;;;0.80;;
4758;SDS011;2393;50.560;12.636;2024-03-17T00:58:20;1.63;;;1.52;;
4758;SDS011;2393;50.560;12.636;2024-03-17T01:00:48;1.33;;;1.20;;
4758;SDS011;2393;50.560;12.636;2024-03-17T01:03:16;5.18;;;1.30;;
4758;SDS011;2393;50.560;12.636;2024-03-17T01:05:43;2.92;;;1.48;;
4758;SDS011;2393;50.560;12.636;2024-03-17T01:08:12;4.05;;;1.20;;
4758;SDS011;2393;50.560;12.636;2024-03-17T01:10:40;2.72;;;2.30;;
4758;SDS011;2393;50.560;12.636;2024-03-17T01:13:09;4.70;;;1.75;;
4758;SDS011;2393;50.560;12.636;2024-03-17T01:15:37;1.70;;;1.60;;
4758;SDS011;2393;50.560;12.636;2024-03-17T01:18:06;1.98;;;1.77;;
4758;SDS011;2393;50.560;12.636;2024-03-17T01:20:34;4.05;;;1.75;;
4758;SDS011;2393;50.560;12.636;2024-03-17T01:23:03;2.22;;;1.85;;
4758;SDS011;2393;50.560;12.636;2024-03-17T01:25:30;2.67;;;1.60;;
4758;SDS011;2393;50.560;12.636;2024-03-17T01:28:01;3.22;;;1.65;;
4758;SDS011;2393;50.560;12.636;2024-03-17T01:30:29;5.38;;;1.70;;
4758;SDS011;2393;50.560;12.636;2024-03-17T01:32:58;10.57;;;1.73;;
4758;SDS011;2393;50.560;12.636;2024-03-17T01:35:26;2.25;;;1.65;;
4758;SDS011;2393;50.560;12.636;2024-03-17T01:37:54;2.45;;;1.75;;
4758;SDS011;2393;50.560;12.636;2024-03-17T01:40:21;1.55;;;1.45;;
4758;SDS011;2393;50.560;12.636;2024-03-17T01:42:48;2.25;;;1.63;;
4758;SDS011;2393;50.560;12.636;2024-03-17T01:45:20;2.35;;;1.38;;
4758;SDS011;2393;50.560;12.636;2024-03-17T01:47:54;2.70;;;0.95;;
4758;SDS011;2393;50.560;12.636;2024-03-17T01:50:23;2.03;;;1.83;;
4758;SDS011;2393;50.560;12.636;2024-03-17T01:52:54;2.47;;;1.42;;
4758;SDS011;2393;50.560;12.636;2024-03-17T01:55:25;1.65;;;1.52;;
4758;SDS011;2393;50.560;12.636;2024-03-17T01:57:54;2.03;;;1.00;;
4758;SDS011;2393;50.560;12.636;2024-03-17T02:00:21;5.47;;;1.00;;
4758;SDS011;2393;50.560;12.636;2024-03-17T02:02:49;8.63;;;2.45;;
4758;SDS011;2393;50.560;12.636;2024-03-17T02:05:17;1.05;;;0.95;;
4758;SDS011;2393;50.560;12.636;2024-03-17T02:07:45;3.33;;;1.40;;
4758;SDS011;2393;50.560;12.636;2024-03-17T02:10:12;5.20;;;1.17;;
4758;SDS011;2393;50.560;12.636;2024-03-17T02:12:40;1.10;;;1.10;;
4758;SDS011;2393;50.560;12.636;2024-03-17T02:15:07;5.55;;;1.67;;
4758;SDS011;2393;50.560;12.636;2024-03-17T02:17:35;6.20;;;1.60;;
4758;SDS011;2393;50.560;12.636;2024-03-17T02:20:02;1.45;;;1.35;;
4758;SDS011;2393;50.560;12.636;2024-03-17T02:22:34;1.15;;;1.05;;
4758;SDS011;2393;50.560;12.636;2024-03-17T02:25:01;4.10;;;1.70;;
4758;SDS011;2393;50.560;12.636;2024-03-17T02:27:29;3.08;;;1.63;;
4758;SDS011;2393;50.560;12.636;2024-03-17T02:29:55;2.10;;;1.13;;
4758;SDS011;2393;50.560;12.636;2024-03-17T02:32:23;2.35;;;1.00;;
4758;SDS011;2393;50.560;12.636;2024-03-17T02:34:51;2.03;;;1.30;;
4758;SDS011;2393;50.560;12.636;2024-03-17T02:37:18;1.88;;;1.48;;
4758;SDS011;2393;50.560;12.636;2024-03-17T02:39:46;3.05;;;1.92;;
4758;SDS011;2393;50.560;12.636;2024-03-17T02:42:14;1.23;;;1.23;;
4758;SDS011;2393;50.560;12.636;2024-03-17T02:44:40;11.02;;;1.92;;
4758;SDS011;2393;50.560;12.636;2024-03-17T02:47:08;1.55;;;1.42;;
4758;SDS011;2393;50.560;12.636;2024-03-17T02:49:36;1.95;;;1.30;;
4758;SDS011;2393;50.560;12.636;2024-03-17T02:52:05;1.80;;;1.52;;
4758;SDS011;2393;50.560;12.636;2024-03-17T02:54:35;2.40;;;1.48;;
4758;SDS011;2393;50.560;12.636;2024-03-17T02:57:05;1.95;;;1.85;;
4758;SDS011;2393;50.560;12.636;2024-03-17T02:59:33;1.50;;;1.40;;
4758;SDS011;2393;50.560;12.636;2024-03-17T03:02:01;3.60;;;1.60;;
4758;SDS011;2393;50.560;12.636;2024-03-17T03:04:30;2.78;;;1.92;;
4758;SDS011;2393;50.560;12.636;2024-03-17T03:06:58;1.45;;;1.40;;
4758;SDS011;2393;50.560;12.636;2024-03-17T03:09:26;1.42;;;1.33;;
4758;SDS011;2393;50.560;12.636;2024-03-17T03:11:57;1.17;;;1.08;;
4758;SDS011;2393;50.560;12.636;2024-03-17T03:14:27;1.60;;;1.50;;
4758;SDS011;2393;50.560;12.636;2024-03-17T03:16:54;1.73;;;1.05;;
4758;SDS011;2393;50.560;12.636;2024-03-17T03:19:22;1.40;;;1.30;;
4758;SDS011;2393;50.560;12.636;2024-03-17T03:21:50;2.17;;;1.65;;
4758;SDS011;2393;50.560;12.636;2024-03-17T03:24:17;1.30;;;1.20;;
4758;SDS011;2393;50.560;12.636;2024-03-17T03:26:45;2.25;;;1.50;;
4758;SDS011;2393;50.560;12.636;2024-03-17T03:29:12;5.38;;;1.58;;
4758;SDS011;2393;50.560;12.636;2024-03-17T03:31:42;4.43;;;1.35;;
4758;SDS011;2393;50.560;12.636;2024-03-17T03:34:09;3.35;;;1.45;;
4758;SDS011;2393;50.560;12.636;2024-03-17T03:36:37;1.58;;;1.48;;
4758;SDS011;2393;50.560;12.636;2024-03-17T03:39:05;1.75;;;1.27;;
4758;SDS011;2393;50.560;12.636;2024-03-17T03:41:35;6.05;;;1.60;;
4758;SDS011;2393;50.560;12.636;2024-03-17T03:44:03;3.25;;;1.55;;
4758;SDS011;2393;50.560;12.636;2024-03-17T03:46:31;2.25;;;1.40;;
4758;SDS011;2393;50.560;12.636;2024-03-17T03:49:00;5.55;;;2.03;;
4758;SDS011;2393;50.560;12.636;2024-03-17T03:51:27;1.02;;;1.00;;
4758;SDS011;2393;50.560;12.636;2024-03-17T03:53:55;1.55;;;1.30;;
4758;SDS011;2393;50.560;12.636;2024-03-17T04:01:00;1.10;;;1.02;;
4758;SDS011;2393;50.560;12.636;2024-03-17T04:03:30;5.18;;;1.67;;
4758;SDS011;2393;50.560;12.636;2024-03-17T04:06:04;1.88;;;1.75;;
4758;SDS011;2393;50.560;12.636;2024-03-17T04:08:32;1.30;;;1.30;;
4758;SDS011;2393;50.560;12.636;2024-03-17T04:11:01;2.95;;;1.77;;
4758;SDS011;2393;50.560;12.636;2024-03-17T04:13:29;1.52;;;1.20;;
4758;SDS011;2393;50.560;12.636;2024-03-17T04:15:57;2.50;;;1.02;;
4758;SDS011;2393;50.560;12.636;2024-03-17T04:18:25;1.23;;;1.13;;
4758;SDS011;2393;50.560;12.636;2024-03-17T04:20:56;1.40;;;1.10;;
4758;SDS011;2393;50.560;12.636;2024-03-17T04:23:25;7.75;;;1.73;;
4758;SDS011;2393;50.560;12.636;2024-03-17T04:25:53;2.45;;;1.30;;
4758;SDS011;2393;50.560;12.636;2024-03-17T04:28:20;1.85;;;1.00;;
4758;SDS011;2393;50.560;12.636;2024-03-17T04:30:48;1.25;;;1.08;;
4758;SDS011;2393;50.560;12.636;2024-03-17T04:33:15;1.75;;;1.65;;
4758;SDS011;2393;50.560;12.636;2024-03-17T04:35:43;1.27;;;1.17;;
4758;SDS011;2393;50.560;12.636;2024-03-17T04:38:10;7.45;;;1.27;;
4758;SDS011;2393;50.560;12.636;2024-03-17T04:40:41;2.90;;;1.17;;
4758;SDS011;2393;50.560;12.636;2024-03-17T04:43:09;2.28;;;1.10;;
4758;SDS011;2393;50.560;12.636;2024-03-17T04:45:36;3.35;;;1.20;;
4758;SDS011;2393;50.560;12.636;2024-03-17T04:48:05;1.45;;;1.25;;
4758;SDS011;2393;50.560;12.636;2024-03-17T04:50:33;4.18;;;1.35;;
4758;SDS011;2393;50.560;12.636;2024-03-17T04:53:01;3.65;;;1.65;;
4758;SDS011;2393;50.560;12.636;2024-03-17T04:55:29;2.05;;;1.55;;
4758;SDS011;2393;50.560;12.636;2024-03-17T04:57:59;3.10;;;1.40;;
4758;SDS011;2393;50.560;12.636;2024-03-17T05:00:26;1.88;;;1.00;;
4758;SDS011;2393;50.560;12.636;2024-03-17T05:02:54;3.38;;;1.58;;
4758;SDS011;2393;50.560;12.636;2024-03-17T05:05:22;1.80;;;1.00;;
4758;SDS011;2393;50.560;12.636;2024-03-17T05:07:50;4.32;;;1.65;;
4758;SDS011;2393;50.560;12.636;2024-03-17T05:10:18;12.13;;;1.15;;
4758;SDS011;2393;50.560;12.636;2024-03-17T05:12:45;3.28;;;1.20;;
4758;SDS011;2393;50.560;12.636;2024-03-17T05:15:15;1.83;;;1.55;;
4758;SDS011;2393;50.560;12.636;2024-03-17T05:17:42;2.10;;;1.38;;
4758;SDS011;2393;50.560;12.636;2024-03-17T05:20:10;1.67;;;1.17;;
4758;SDS011;2393;50.560;12.636;2024-03-17T05:22:38;3.05;;;1.98;;
4758;SDS011;2393;50.560;12.636;2024-03-17T05:25:06;4.28;;;1.38;;
4758;SDS011;2393;50.560;12.636;2024-03-17T05:27:34;1.13;;;1.13;;
4758;SDS011;2393;50.560;12.636;2024-03-17T05:30:01;2.53;;;1.23;;
4758;SDS011;2393;50.560;12.636;2024-03-17T05:32:32;3.20;;;1.77;;
4758;SDS011;2393;50.560;12.636;2024-03-17T05:35:00;2.08;;;0.88;;
4758;SDS011;2393;50.560;12.636;2024-03-17T05:37:27;0.80;;;0.80;;
4758;SDS011;2393;50.560;12.636;2024-03-17T05:39:56;4.10;;;1.17;;
4758;SDS011;2393;50.560;12.636;2024-03-17T05:42:23;1.20;;;1.10;;
4758;SDS011;2393;50.560;12.636;2024-03-17T05:44:51;1.42;;;1.33;;
4758;SDS011;2393;50.560;12.636;2024-03-17T05:47:19;1.60;;;1.33;;
4758;SDS011;2393;50.560;12.636;2024-03-17T05:49:49;1.30;;;1.27;;
4758;SDS011;2393;50.560;12.636;2024-03-17T05:52:17;3.53;;;1.35;;
4758;SDS011;2393;50.560;12.636;2024-03-17T05:54:45;1.95;;;1.13;;
4758;SDS011;2393;50.560;12.636;2024-03-17T05:57:12;1.85;;;1.73;;
4758;SDS011;2393;50.560;12.636;2024-03-17T05:59:42;1.73;;;1.38;;
4758;SDS011;2393;50.560;12.636;2024-03-17T06:02:09;1.52;;;1.20;;
4758;SDS011;2393;50.560;12.636;2024-03-17T06:04:37;4.95;;;1.50;;
4758;SDS011;2393;50.560;12.636;2024-03-17T06:07:06;1.67;;;1.27;;
4758;SDS011;2393;50.560;12.636;2024-03-17T06:09:34;2.60;;;1.85;;
4758;SDS011;2393;50.560;12.636;2024-03-17T06:12:02;1.30;;;1.13;;
4758;SDS011;2393;50.560;12.636;2024-03-17T06:14:30;3.33;;;1.30;;
4758;SDS011;2393;50.560;12.636;2024-03-17T06:16:59;3.35;;;1.73;;
4758;SDS011;2393;50.560;12.636;2024-03-17T06:19:27;1.45;;;1.35;;
4758;SDS011;2393;50.560;12.636;2024-03-17T06:21:55;3.53;;;1.52;;
4758;SDS011;2393;50.560;12.636;2024-03-17T06:24:24;2.63;;;1.50;;
4758;SDS011;2393;50.560;12.636;2024-03-17T06:26:52;1.48;;;1.15;;
4758;SDS011;2393;50.560;12.636;2024-03-17T06:29:20;6.38;;;1.52;;
4758;SDS011;2393;50.560;12.636;2024-03-17T06:31:47;2.55;;;1.27;;
4758;SDS011;2393;50.560;12.636;2024-03-17T06:34:14;2.60;;;1.42;;
4758;SDS011;2393;50.560;12.636;2024-03-17T06:36:43;2.15;;;2.00;;
4758;SDS011;2393;50.560;12.636;2024-03-17T06:39:12;1.30;;;1.20;;
4758;SDS011;2393;50.560;12.636;2024-03-17T06:41:42;3.85;;;1.60;;
4758;SDS011;2393;50.560;12.636;2024-03-17T06:44:10;3.30;;;1.85;;
4758;SDS011;2393;50.560;12.636;2024-03-17T06:46:38;2.17;;;1.52;;
4758;SDS011;2393;50.560;12.636;2024-03-17T06:49:06;3.35;;;2.10;;
4758;SDS011;2393;50.560;12.636;2024-03-17T06:51:33;8.57;;;1.58;;
4758;SDS011;2393;50.560;12.636;2024-03-17T06:54:01;1.48;;;1.48;;
4758;SDS011;2393;50.560;12.636;2024-03-17T06:56:29;4.63;;;1.80;;
4758;SDS011;2393;50.560;12.636;2024-03-17T06:58:59;2.05;;;1.80;;
4758;SDS011;2393;50.560;12.636;2024-03-17T07:01:27;6.35;;;1.90;;
4758;SDS011;2393;50.560;12.636;2024-03-17T07:03:54;4.47;;;1.48;;
4758;SDS011;2393;50.560;12.636;2024-03-17T07:06:22;3.90;;;1.60;;
4758;SDS011;2393;50.560;12.636;2024-03-17T07:08:49;3.95;;;2.25;;
4758;SDS011;2393;50.560;12.636;2024-03-17T07:11:16;4.43;;;1.63;;
4758;SDS011;2393;50.560;12.636;2024-03-17T07:13:44;6.20;;;2.08;;
4758;SDS011;2393;50.560;12.636;2024-03-17T07:16:13;1.80;;;1.50;;
4758;SDS011;2393;50.560;12.636;2024-03-17T07:18:40;4.97;;;1.88;;
4758;SDS011;2393;50.560;12.636;2024-03-17T07:21:09;1.70;;;1.60;;
4758;SDS011;2393;50.560;12.636;2024-03-17T07:23:37;3.90;;;1.95;;
4758;SDS011;2393;50.560;12.636;2024-03-17T07:26:04;1.60;;;1.50;;
4758;SDS011;2393;50.560;12.636;2024-03-17T07:28:32;1.83;;;1.40;;
4758;SDS011;2393;50.560;12.636;2024-03-17T07:30:59;4.05;;;2.00;;
4758;SDS011;2393;50.560;12.636;2024-03-17T07:33:29;1.38;;;1.27;;
4758;SDS011;2393;50.560;12.636;2024-03-17T07:35:57;3.80;;;1.27;;
4758;SDS011;2393;50.560;12.636;2024-03-17T07:38:26;4.95;;;1.63;;
4758;SDS011;2393;50.560;12.636;2024-03-17T07:40:55;2.20;;;2.10;;
4758;SDS011;2393;50.560;12.636;2024-03-17T07:43:25;4.30;;;1.97;;
4758;SDS011;2393;50.560;12.636;2024-03-17T07:45:59;1.83;;;1.73;;
4758;SDS011;2393;50.560;12.636;2024-03-17T07:48:28;4.68;;;1.60;;
4758;SDS011;2393;50.560;12.636;2024-03-17T07:50:58;10.37;;;2.07;;
4758;SDS011;2393;50.560;12.636;2024-03-17T07:53:29;3.70;;;1.65;;
4758;SDS011;2393;50.560;12.636;2024-03-17T07:55:57;3.97;;;2.05;;
4758;SDS011;2393;50.560;12.636;2024-03-17T07:58:25;6.33;;;1.93;;
4758;SDS011;2393;50.560;12.636;2024-03-17T08:00:58;7.40;;;1.40;;
4758;SDS011;2393;50.560;12.636;2024-03-17T08:03:26;2.00;;;1.70;;
4758;SDS011;2393;50.560;12.636;2024-03-17T08:05:56;3.80;;;1.63;;
4758;SDS011;2393;50.560;12.636;2024-03-17T08:08:23;4.33;;;1.70;;
4758;SDS011;2393;50.560;12.636;2024-03-17T08:10:51;9.90;;;2.13;;
4758;SDS011;2393;50.560;12.636;2024-03-17T08:13:19;3.03;;;1.33;;
4758;SDS011;2393;50.560;12.636;2024-03-17T08:15:56;2.10;;;1.30;;
4758;SDS011;2393;50.560;12.636;2024-03-17T08:21:35;2.57;;;0.90;;
4758;SDS011;2393;50.560;12.636;2024-03-17T08:24:03;2.50;;;2.30;;
4758;SDS011;2393;50.560;12.636;2024-03-17T08:26:31;4.67;;;1.43;;
4758;SDS011;2393;50.560;12.636;2024-03-17T08:28:59;3.97;;;1.20;;
4758;SDS011;2393;50.560;12.636;2024-03-17T08:31:26;2.93;;;1.13;;
4758;SDS011;2393;50.560;12.636;2024-03-17T08:33:54;1.13;;;1.10;;
4758;SDS011;2393;50.560;12.636;2024-03-17T08:36:21;4.03;;;1.50;;
4758;SDS011;2393;50.560;12.636;2024-03-17T08:38:51;2.47;;;1.17;;
4758;SDS011;2393;50.560;12.636;2024-03-17T08:41:20;3.23;;;1.40;;
4758;SDS011;2393;50.560;12.636;2024-03-17T08:43:48;1.03;;;1.03;;
4758;SDS011;2393;50.560;12.636;2024-03-17T08:46:15;2.10;;;1.00;;
4758;SDS011;2393;50.560;12.636;2024-03-17T08:48:44;3.60;;;1.50;;
4758;SDS011;2393;50.560;12.636;2024-03-17T08:51:11;8.23;;;1.40;;
4758;SDS011;2393;50.560;12.636;2024-03-17T08:53:39;5.00;;;1.30;;
4758;SDS011;2393;50.560;12.636;2024-03-17T08:56:10;1.07;;;1.07;;
4758;SDS011;2393;50.560;12.636;2024-03-17T08:58:37;1.90;;;1.10;;
4758;SDS011;2393;50.560;12.636;2024-03-17T09:01:06;1.90;;;1.30;;
4758;SDS011;2393;50.560;12.636;2024-03-17T09:03:33;4.23;;;1.37;;
4758;SDS011;2393;50.560;12.636;2024-03-17T09:06:01;2.63;;;1.20;;
4758;SDS011;2393;50.560;12.636;2024-03-17T09:08:31;2.57;;;1.07;;
4758;SDS011;2393;50.560;12.636;2024-03-17T09:10:59;1.47;;;1.37;;
4758;SDS011;2393;50.560;12.636;2024-03-17T09:13:27;2.73;;;1.30;;
4758;SDS011;2393;50.560;12.636;2024-03-17T09:15:55;2.60;;;1.70;;
4758;SDS011;2393;50.560;12.636;2024-03-17T09:18:25;3.83;;;1.17;;
4758;SDS011;2393;50.560;12.636;2024-03-17T09:20:57;2.67;;;1.10;;
4758;SDS011;2393;50.560;12.636;2024-03-17T09:23:25;1.43;;;1.37;;
4758;SDS011;2393;50.560;12.636;2024-03-17T09:25:57;3.27;;;1.27;;
4758;SDS011;2393;50.560;12.636;2024-03-17T09:28:24;4.20;;;1.30;;
4758;SDS011;2393;50.560;12.636;2024-03-17T09:30:53;4.27;;;1.23;;
4758;SDS011;2393;50.560;12.636;2024-03-17T09:33:21;1.40;;;1.23;;
4758;SDS011;2393;50.560;12.636;2024-03-17T09:35:52;2.23;;;1.13;;
4758;SDS011;2393;50.560;12.636;2024-03-17T09:38:21;4.87;;;1.17;;
4758;SDS011;2393;50.560;12.636;2024-03-17T09:40:48;2.40;;;1.00;;
4758;SDS011;2393;50.560;12.636;2024-03-17T09:43:18;1.97;;;1.30;;
4758;SDS011;2393;50.560;12.636;2024-03-17T09:45:47;1.27;;;1.17;;
4758;SDS011;2393;50.560;12.636;2024-03-17T09:48:16;2.83;;;1.40;;
4758;SDS011;2393;50.560;12.636;2024-03-17T09:50:48;0.90;;;0.87;;
4758;SDS011;2393;50.560;12.636;2024-03-17T09:53:20;4.60;;;1.77;;
4758;SDS011;2393;50.560;12.636;2024-03-17T09:55:50;1.33;;;0.80;;
4758;SDS011;2393;50.560;12.636;2024-03-17T09:58:19;1.27;;;1.27;;
4758;SDS011;2393;50.560;12.636;2024-03-17T10:00:46;3.40;;;1.37;;
4758;SDS011;2393;50.560;12.636;2024-03-17T10:03:38;6.43;;;1.07;;
4758;SDS011;2393;50.560;12.636;2024-03-17T10:06:07;6.23;;;1.60;;
4758;SDS011;2393;50.560;12.636;2024-03-17T10:08:43;3.07;;;1.23;;
4758;SDS011;2393;50.560;12.636;2024-03-17T10:11:12;4.90;;;1.30;;
4758;SDS011;2393;50.560;12.636;2024-03-17T10:13:42;2.70;;;1.67;;
4758;SDS011;2393;50.560;12.636;2024-03-17T10:16:21;4.10;;;1.17;;
4758;SDS011;2393;50.560;12.636;2024-03-17T10:18:56;1.00;;;1.00;;
4758;SDS011;2393;50.560;12.636;2024-03-17T10:21:34;4.63;;;1.30;;
4758;SDS011;2393;50.560;12.636;2024-03-17T10:24:05;8.80;;;1.60;;
4758;SDS011;2393;50.560;12.636;2024-03-17T10:26:38;1.60;;;0.90;;
4758;SDS011;2393;50.560;12.636;2024-03-17T10:31:59;3.50;;;1.40;;
4758;SDS011;2393;50.560;12.636;2024-03-17T10:34:30;3.23;;;1.10;;
4758;SDS011;2393;50.560;12.636;2024-03-17T10:37:05;3.23;;;1.23;;
4758;SDS011;2393;50.560;12.636;2024-03-17T10:39:37;2.20;;;1.43;;
4758;SDS011;2393;50.560;12.636;2024-03-17T10:42:05;1.37;;;1.27;;
4758;SDS011;2393;50.560;12.636;2024-03-17T10:44:34;4.03;;;1.10;;
4758;SDS011;2393;50.560;12.636;2024-03-17T10:47:02;2.40;;;1.10;;
4758;SDS011;2393;50.560;12.636;2024-03-17T10:49:37;2.00;;;1.10;;
4758;SDS011;2393;50.560;12.636;2024-03-17T10:52:06;5.83;;;1.70;;
4758;SDS011;2393;50.560;12.636;2024-03-17T10:54:34;5.60;;;1.33;;
4758;SDS011;2393;50.560;12.636;2024-03-17T10:57:05;2.10;;;0.90;;
4758;SDS011;2393;50.560;12.636;2024-03-17T10:59:51;4.17;;;2.37;;
4758;SDS011;2393;50.560;12.636;2024-03-17T11:02:20;11.43;;;3.73;;
4758;SDS011;2393;50.560;12.636;2024-03-17T11:04:55;3.47;;;1.77;;
4758;SDS011;2393;50.560;12.636;2024-03-17T11:07:25;2.13;;;1.60;;
4758;SDS011;2393;50.560;12.636;2024-03-17T11:09:54;8.03;;;1.20;;
4758;SDS011;2393;50.560;12.636;2024-03-17T11:12:41;3.33;;;1.23;;
4758;SDS011;2393;50.560;12.636;2024-03-17T11:21:04;3.57;;;1.30;;
4758;SDS011;2393;50.560;12.636;2024-03-17T11:23:36;1.43;;;1.27;;
4758;SDS011;2393;50.560;12.636;2024-03-17T11:26:05;1.20;;;1.10;;
4758;SDS011;2393;50.560;12.636;2024-03-17T11:28:47;4.47;;;1.20;;
4758;SDS011;2393;50.560;12.636;2024-03-17T11:34:31;1.40;;;1.30;;
4758;SDS011;2393;50.560;12.636;2024-03-17T11:37:02;1.83;;;1.73;;
4758;SDS011;2393;50.560;12.636;2024-03-17T11:42:15;2.70;;;1.30;;
4758;SDS011;2393;50.560;12.636;2024-03-17T11:44:43;2.80;;;1.00;;
4758;SDS011;2393;50.560;12.636;2024-03-17T11:47:19;2.90;;;1.67;;
4758;SDS011;2393;50.560;12.636;2024-03-17T11:49:47;4.27;;;1.70;;
4758;SDS011;2393;50.560;12.636;2024-03-17T11:52:15;2.27;;;1.43;;
4758;SDS011;2393;50.560;12.636;2024-03-17T11:54:44;0.93;;;0.90;;
4758;SDS011;2393;50.560;12.636;2024-03-17T11:57:11;5.93;;;2.47;;
4758;SDS011;2393;50.560;12.636;2024-03-17T11:59:40;3.17;;;1.60;;
4758;SDS011;2393;50.560;12.636;2024-03-17T12:02:10;5.30;;;1.77;;
4758;SDS011;2393;50.560;12.636;2024-03-17T12:04:44;2.40;;;1.33;;
4758;SDS011;2393;50.560;12.636;2024-03-17T12:07:12;4.97;;;1.53;;
4758;SDS011;2393;50.560;12.636;2024-03-17T12:09:41;1.80;;;1.67;;
4758;SDS011;2393;50.560;12.636;2024-03-17T12:12:11;1.57;;;1.57;;
4758;SDS011;2393;50.560;12.636;2024-03-17T12:14:43;1.70;;;1.17;;
4758;SDS011;2393;50.560;12.636;2024-03-17T12:17:11;2.20;;;1.80;;
4758;SDS011;2393;50.560;12.636;2024-03-17T12:19:39;3.33;;;2.10;;
4758;SDS011;2393;50.560;12.636;2024-03-17T12:22:07;3.83;;;2.20;;
4758;SDS011;2393;50.560;12.636;2024-03-17T12:24:36;4.00;;;1.90;;
4758;SDS011;2393;50.560;12.636;2024-03-17T12:27:05;3.90;;;2.27;;
4758;SDS011;2393;50.560;12.636;2024-03-17T12:29:33;2.80;;;1.67;;
4758;SDS011;2393;50.560;12.636;2024-03-17T12:32:03;6.43;;;2.00;;
4758;SDS011;2393;50.560;12.636;2024-03-17T12:34:32;2.87;;;2.60;;
4758;SDS011;2393;50.560;12.636;2024-03-17T12:37:01;4.47;;;2.60;;
4758;SDS011;2393;50.560;12.636;2024-03-17T12:39:29;2.47;;;2.20;;
4758;SDS011;2393;50.560;12.636;2024-03-17T12:42:01;2.00;;;1.90;;
4758;SDS011;2393;50.560;12.636;2024-03-17T12:44:33;6.90;;;3.00;;
4758;SDS011;2393;50.560;12.636;2024-03-17T12:47:03;3.43;;;2.53;;
4758;SDS011;2393;50.560;12.636;2024-03-17T12:49:30;5.73;;;2.60;;
4758;SDS011;2393;50.560;12.636;2024-03-17T12:52:00;4.60;;;2.80;;
4758;SDS011;2393;50.560;12.636;2024-03-17T12:54:27;3.03;;;1.70;;
4758;SDS011;2393;50.560;12.636;2024-03-17T12:57:06;5.00;;;2.60;;
4758;SDS011;2393;50.560;12.636;2024-03-17T12:59:53;4.03;;;2.20;;
4758;SDS011;2393;50.560;12.636;2024-03-17T13:02:41;3.70;;;2.70;;
4758;SDS011;2393;50.560;12.636;2024-03-17T13:05:15;3.73;;;2.83;;
4758;SDS011;2393;50.560;12.636;2024-03-17T13:07:44;5.30;;;2.67;;
4758;SDS011;2393;50.560;12.636;2024-03-17T13:10:14;3.63;;;2.27;;
4758;SDS011;2393;50.560;12.636;2024-03-17T13:12:44;3.40;;;2.30;;
4758;SDS011;2393;50.560;12.636;2024-03-17T13:15:12;3.63;;;1.90;;
4758;SDS011;2393;50.560;12.636;2024-03-17T13:17:41;2.47;;;2.27;;
4758;SDS011;2393;50.560;12.636;2024-03-17T13:20:12;10.60;;;2.67;;
4758;SDS011;2393;50.560;12.636;2024-03-17T13:22:41;3.37;;;2.97;;
4758;SDS011;2393;50.560;12.636;2024-03-17T13:25:13;4.60;;;3.10;;
4758;SDS011;2393;50.560;12.636;2024-03-17T13:27:44;2.40;;;2.00;;
4758;SDS011;2393;50.560;12.636;2024-03-17T13:30:12;8.43;;;2.00;;
4758;SDS011;2393;50.560;12.636;2024-03-17T13:32:40;2.87;;;2.57;;
4758;SDS011;2393;50.560;12.636;2024-03-17T13:35:14;3.93;;;2.20;;
4758;SDS011;2393;50.560;12.636;2024-03-17T13:37:43;5.53;;;2.20;;
4758;SDS011;2393;50.560;12.636;2024-03-17T13:40:11;2.63;;;2.43;;
4758;SDS011;2393;50.560;12.636;2024-03-17T13:42:42;2.60;;;2.30;;
4758;SDS011;2393;50.560;12.636;2024-03-17T13:45:11;4.80;;;2.23;;
4758;SDS011;2393;50.560;12.636;2024-03-17T13:47:39;4.30;;;2.27;;
4758;SDS011;2393;50.560;12.636;2024-03-17T13:50:08;3.63;;;2.90;;
4758;SDS011;2393;50.560;12.636;2024-03-17T13:52:38;3.03;;;2.47;;
4758;SDS011;2393;50.560;12.636;2024-03-17T13:55:06;3.97;;;3.17;;
4758;SDS011;2393;50.560;12.636;2024-03-17T13:57:41;3.33;;;3.03;;
4758;SDS011;2393;50.560;12.636;2024-03-17T14:00:11;3.63;;;2.33;;
4758;SDS011;2393;50.560;12.636;2024-03-17T14:02:42;3.20;;;2.90;;
4758;SDS011;2393;50.560;12.636;2024-03-17T14:05:10;8.90;;;2.63;;
4758;SDS011;2393;50.560;12.636;2024-03-17T14:07:39;3.20;;;2.90;;
4758;SDS011;2393;50.560;12.636;2024-03-17T14:10:08;2.73;;;2.37;;
4758;SDS011;2393;50.560;12.636;2024-03-17T14:12:37;5.27;;;3.17;;
4758;SDS011;2393;50.560;12.636;2024-03-17T14:15:05;4.10;;;2.50;;
4758;SDS011;2393;50.560;12.636;2024-03-17T14:17:37;9.20;;;2.80;;
4758;SDS011;2393;50.560;12.636;2024-03-17T14:20:06;4.73;;;2.80;;
4758;SDS011;2393;50.560;12.636;2024-03-17T14:22:35;3.20;;;2.90;;
4758;SDS011;2393;50.560;12.636;2024-03-17T14:25:04;4.67;;;2.87;;
4758;SDS011;2393;50.560;12.636;2024-03-17T14:27:33;5.77;;;3.00;;
4758;SDS011;2393;50.560;12.636;2024-03-17T14:30:00;3.70;;;2.20;;
4758;SDS011;2393;50.560;12.636;2024-03-17T14:32:29;2.43;;;2.23;;
4758;SDS011;2393;50.560;12.636;2024-03-17T14:34:58;4.40;;;3.03;;
4758;SDS011;2393;50.560;12.636;2024-03-17T14:37:26;3.53;;;2.90;;
4758;SDS011;2393;50.560;12.636;2024-03-17T14:39:53;4.10;;;3.63;;
4758;SDS011;2393;50.560;12.636;2024-03-17T14:42:21;6.73;;;3.63;;
4758;SDS011;2393;50.560;12.636;2024-03-17T14:44:50;2.90;;;2.57;;
4758;SDS011;2393;50.560;12.636;2024-03-17T14:47:17;5.10;;;3.23;;
4758;SDS011;2393;50.560;12.636;2024-03-17T14:49:45;5.97;;;2.90;;
4758;SDS011;2393;50.560;12.636;2024-03-17T14:52:14;3.77;;;3.30;;
4758;SDS011;2393;50.560;12.636;2024-03-17T14:54:42;2.90;;;2.70;;
4758;SDS011;2393;50.560;12.636;2024-03-17T14:57:09;3.70;;;2.77;;
4758;SDS011;2393;50.560;12.636;2024-03-17T14:59:38;3.10;;;2.37;;
4758;SDS011;2393;50.560;12.636;2024-03-17T15:02:05;2.93;;;2.53;;
4758;SDS011;2393;50.560;12.636;2024-03-17T15:04:35;2.70;;;2.50;;
4758;SDS011;2393;50.560;12.636;2024-03-17T15:07:02;8.63;;;2.80;;
4758;SDS011;2393;50.560;12.636;2024-03-17T15:09:32;5.43;;;2.70;;
4758;SDS011;2393;50.560;12.636;2024-03-17T15:12:00;2.93;;;2.57;;
4758;SDS011;2393;50.560;12.636;2024-03-17T15:14:29;5.43;;;3.07;;
4758;SDS011;2393;50.560;12.636;2024-03-17T15:16:57;5.67;;;3.20;;
4758;SDS011;2393;50.560;12.636;2024-03-17T15:19:25;5.00;;;3.13;;
4758;SDS011;2393;50.560;12.636;2024-03-17T15:21:52;3.83;;;2.83;;
4758;SDS011;2393;50.560;12.636;2024-03-17T15:24:20;5.43;;;2.60;;
4758;SDS011;2393;50.560;12.636;2024-03-17T15:26:48;3.20;;;2.60;;
4758;SDS011;2393;50.560;12.636;2024-03-17T15:29:16;2.67;;;2.50;;
4758;SDS011;2393;50.560;12.636;2024-03-17T15:31:44;3.30;;;3.00;;
4758;SDS011;2393;50.560;12.636;2024-03-17T15:34:11;5.20;;;2.73;;